Clara — V2CC9 — position and weather

sailwx.info

Track history (hours):
 
Tides and Currents Weather Stations Pressure Air Temp Water Temp Dewpoint Dewpoint Depression Visibility Wind Speed Wind Dir Waves Ship Positions

Clara

Last reported at 2015-Apr-14 10:33 UTC. Time now 2015-Apr-21 05:02 UTC.
Position N 39°19' W 009°51'.

Length 108 m; draft 6.8 m.

Type: Cargo ship. MMSI: 304983000.

Date/timePositionNaut miles runAvg speedWind from/ knotsBaromVisibWave heightAir tempDewpointWater temp
2015-Apr-14 10:33N 39°19' W 009°51'1010.5
2015-Apr-14 09:33N 39°08' W 009°50'1110.7
2015-Apr-14 08:33N 38°57' W 009°51'1010.4
2015-Apr-14 07:33N 38°47' W 009°51'1010.2
2015-Apr-14 06:33N 38°37' W 009°49'1110.5
2015-Apr-14 05:33N 38°27' W 009°46'1110.7
2015-Apr-14 04:33N 38°16' W 009°43'1010.5
2015-Apr-14 03:33N 38°06' W 009°40'9 9.0
2015-Apr-14 02:33N 37°57' W 009°37'1010.3
2015-Apr-14 01:33N 37°47' W 009°34'1010.0
2015-Apr-14 00:33N 37°37' W 009°31'1010.3
2015-Apr-13 23:33N 37°27' W 009°28'1010.3
2015-Apr-13 22:33N 37°17' W 009°25'57 9.1
2015-Apr-13 16:16N 36°36' W 008°36'14910.6
2015-Apr-13 02:16N 35°58' W 005°38'8 9.5
2015-Apr-13 01:28N 35°59' W 005°29'9 9.6
2015-Apr-13 00:33N 36°02' W 005°18'39110.7
2015-Apr-11 12:05N 37°01' E 002°43'16010.2
2015-Apr-10 20:20N 37°22' E 006°02'1010.8
2015-Apr-10 19:27N 37°23' E 006°14'2410.6
2015-Apr-10 17:11N 37°26' E 006°44'1110.6
2015-Apr-10 16:10N 37°27' E 006°57'710.1
2015-Apr-10 15:28N 37°28' E 007°06'32910.2
2015-Apr-09 07:11N 36°46' E 013°55'710.5
2015-Apr-09 06:33N 36°45' E 014°03'1010.4
2015-Apr-09 05:33N 36°43' E 014°16'1010.2
2015-Apr-09 04:33N 36°40' E 014°28'  
2015-Apr-05 14:30N 40°53' E 028°33'1110.7
2015-Apr-05 13:30N 40°55' E 028°47'6 5.7
2015-Apr-05 12:29N 40°57' E 028°54'0 0.0
2015-Apr-05 11:11N 40°57' E 028°54'0 0.0
2015-Apr-05 10:23N 40°57' E 028°54'0 0.0
2015-Apr-05 09:22N 40°57' E 028°54'6 6.8
2015-Apr-05 08:31N 41°01' E 028°60'  
Track history (hours):
 
Tides and Currents Weather Stations Pressure Air Temp Water Temp Dewpoint Dewpoint Depression Visibility Wind Speed Wind Dir Waves Ship Positions

Clara

Last reported at 2015-Apr-14 10:33 UTC. Time now 2015-Apr-21 05:02 UTC.
Position N 39°19' W 009°51'.

Length 108 m; draft 6.8 m.

Type: Cargo ship. MMSI: 304983000.

Date/timePositionNaut miles runAvg speedWind from/ knotsBaromVisibWave heightAir tempDewpointWater temp
2015-Apr-14 10:33N 39°19' W 009°51'1010.5
2015-Apr-14 09:33N 39°08' W 009°50'1110.7
2015-Apr-14 08:33N 38°57' W 009°51'1010.4
2015-Apr-14 07:33N 38°47' W 009°51'1010.2
2015-Apr-14 06:33N 38°37' W 009°49'1110.5
2015-Apr-14 05:33N 38°27' W 009°46'1110.7
2015-Apr-14 04:33N 38°16' W 009°43'1010.5
2015-Apr-14 03:33N 38°06' W 009°40'9 9.0
2015-Apr-14 02:33N 37°57' W 009°37'1010.3
2015-Apr-14 01:33N 37°47' W 009°34'1010.0
2015-Apr-14 00:33N 37°37' W 009°31'1010.3
2015-Apr-13 23:33N 37°27' W 009°28'1010.3
2015-Apr-13 22:33N 37°17' W 009°25'57 9.1
2015-Apr-13 16:16N 36°36' W 008°36'14910.6
2015-Apr-13 02:16N 35°58' W 005°38'8 9.5
2015-Apr-13 01:28N 35°59' W 005°29'9 9.6
2015-Apr-13 00:33N 36°02' W 005°18'39110.7
2015-Apr-11 12:05N 37°01' E 002°43'16010.2
2015-Apr-10 20:20N 37°22' E 006°02'1010.8
2015-Apr-10 19:27N 37°23' E 006°14'2410.6
2015-Apr-10 17:11N 37°26' E 006°44'1110.6
2015-Apr-10 16:10N 37°27' E 006°57'710.1
2015-Apr-10 15:28N 37°28' E 007°06'32910.2
2015-Apr-09 07:11N 36°46' E 013°55'710.5
2015-Apr-09 06:33N 36°45' E 014°03'1010.4
2015-Apr-09 05:33N 36°43' E 014°16'1010.2
2015-Apr-09 04:33N 36°40' E 014°28'  
2015-Apr-05 14:30N 40°53' E 028°33'1110.7
2015-Apr-05 13:30N 40°55' E 028°47'6 5.7
2015-Apr-05 12:29N 40°57' E 028°54'0 0.0
2015-Apr-05 11:11N 40°57' E 028°54'0 0.0
2015-Apr-05 10:23N 40°57' E 028°54'0 0.0
2015-Apr-05 09:22N 40°57' E 028°54'6 6.8
2015-Apr-05 08:31N 41°01' E 028°60'  

Dump ship's entire track history